sensor_id;sensor_type;location;lat;lon;timestamp;temperature;humidity
30385;DHT22;17181;51.002;4.096;2022-07-29T17:11:03;32.50;41.40
30385;DHT22;17181;51.002;4.096;2022-07-29T17:13:40;32.60;41.40
30385;DHT22;17181;51.002;4.096;2022-07-29T17:16:07;32.40;41.70
30385;DHT22;17181;51.002;4.096;2022-07-29T17:18:33;32.50;42.00
30385;DHT22;17181;51.002;4.096;2022-07-29T17:20:58;32.40;41.80
30385;DHT22;17181;51.002;4.096;2022-07-29T17:23:28;32.40;41.90
30385;DHT22;17181;51.002;4.096;2022-07-29T17:25:54;32.40;41.80
30385;DHT22;17181;51.002;4.096;2022-07-29T17:28:21;32.10;41.90
30385;DHT22;17181;51.002;4.096;2022-07-29T17:30:47;32.10;42.10
30385;DHT22;17181;51.002;4.096;2022-07-29T17:33:13;32.00;42.30
30385;DHT22;17181;51.002;4.096;2022-07-29T17:35:39;31.90;42.00
30385;DHT22;17181;51.002;4.096;2022-07-29T17:38:26;31.70;41.90
30385;DHT22;17181;51.002;4.096;2022-07-29T17:40:52;31.60;42.00
30385;DHT22;17181;51.002;4.096;2022-07-29T17:43:17;31.20;42.30
30385;DHT22;17181;51.002;4.096;2022-07-29T17:45:43;30.60;42.80
30385;DHT22;17181;51.002;4.096;2022-07-29T17:48:09;30.10;43.50
30385;DHT22;17181;51.002;4.096;2022-07-29T17:50:35;29.70;44.00
30385;DHT22;17181;51.002;4.096;2022-07-29T17:53:01;29.20;44.40
30385;DHT22;17181;51.002;4.096;2022-07-29T17:55:27;28.90;45.30
30385;DHT22;17181;51.002;4.096;2022-07-29T17:57:55;28.40;45.90
30385;DHT22;17181;51.002;4.096;2022-07-29T18:00:21;28.10;46.20
30385;DHT22;17181;51.002;4.096;2022-07-29T18:02:49;27.90;46.60
30385;DHT22;17181;51.002;4.096;2022-07-29T18:05:18;27.60;47.20
30385;DHT22;17181;51.002;4.096;2022-07-29T18:07:44;27.60;47.70
30385;DHT22;17181;51.002;4.096;2022-07-29T18:10:10;27.30;47.80
30385;DHT22;17181;51.002;4.096;2022-07-29T18:12:36;27.10;48.10
30385;DHT22;17181;51.002;4.096;2022-07-29T18:15:03;26.90;48.60
30385;DHT22;17181;51.002;4.096;2022-07-29T18:17:29;26.90;48.80
30385;DHT22;17181;51.002;4.096;2022-07-29T18:19:55;26.70;48.90
30385;DHT22;17181;51.002;4.096;2022-07-29T18:22:21;26.50;49.40
30385;DHT22;17181;51.002;4.096;2022-07-29T18:24:51;26.50;49.80
30385;DHT22;17181;51.002;4.096;2022-07-29T18:27:20;26.30;49.90
30385;DHT22;17181;51.002;4.096;2022-07-29T18:29:47;26.30;50.00
30385;DHT22;17181;51.002;4.096;2022-07-29T18:32:14;26.10;50.60
30385;DHT22;17181;51.002;4.096;2022-07-29T18:34:49;25.90;50.30
30385;DHT22;17181;51.002;4.096;2022-07-29T18:37:19;25.90;50.90
30385;DHT22;17181;51.002;4.096;2022-07-29T18:40:19;25.50;50.80
30385;DHT22;17181;51.002;4.096;2022-07-29T18:42:46;25.40;51.70
30385;DHT22;17181;51.002;4.096;2022-07-29T18:45:12;25.30;51.50
30385;DHT22;17181;51.002;4.096;2022-07-29T18:47:38;25.20;51.80
30385;DHT22;17181;51.002;4.096;2022-07-29T18:50:08;25.00;52.10
30385;DHT22;17181;51.002;4.096;2022-07-29T18:52:34;24.90;52.50
30385;DHT22;17181;51.002;4.096;2022-07-29T18:55:01;24.80;52.60
30385;DHT22;17181;51.002;4.096;2022-07-29T18:57:28;24.70;53.10
30385;DHT22;17181;51.002;4.096;2022-07-29T18:59:56;24.40;53.20
30385;DHT22;17181;51.002;4.096;2022-07-29T19:02:22;24.30;53.40
30385;DHT22;17181;51.002;4.096;2022-07-29T19:04:48;24.20;53.80
30385;DHT22;17181;51.002;4.096;2022-07-29T19:07:16;24.10;54.00
30385;DHT22;17181;51.002;4.096;2022-07-29T19:09:43;24.00;54.50
30385;DHT22;17181;51.002;4.096;2022-07-29T19:12:09;23.90;54.80
30385;DHT22;17181;51.002;4.096;2022-07-29T19:14:35;23.80;55.20
30385;DHT22;17181;51.002;4.096;2022-07-29T19:17:01;23.70;55.40
30385;DHT22;17181;51.002;4.096;2022-07-29T19:19:27;23.60;55.40
30385;DHT22;17181;51.002;4.096;2022-07-29T19:21:53;23.50;55.90
30385;DHT22;17181;51.002;4.096;2022-07-29T19:24:19;23.50;56.00
30385;DHT22;17181;51.002;4.096;2022-07-29T19:26:44;23.30;56.10
30385;DHT22;17181;51.002;4.096;2022-07-29T19:29:14;23.20;56.10
30385;DHT22;17181;51.002;4.096;2022-07-29T19:31:41;23.20;56.50
30385;DHT22;17181;51.002;4.096;2022-07-29T19:34:11;23.10;56.90
30385;DHT22;17181;51.002;4.096;2022-07-29T19:36:46;22.90;57.20
30385;DHT22;17181;51.002;4.096;2022-07-29T20:29:50;21.10;65.80
30385;DHT22;17181;51.002;4.096;2022-07-29T20:32:16;21.00;65.60
30385;DHT22;17181;51.002;4.096;2022-07-29T20:34:42;20.90;66.50
30385;DHT22;17181;51.002;4.096;2022-07-29T20:37:08;20.90;66.70
30385;DHT22;17181;51.002;4.096;2022-07-29T20:39:39;20.90;67.00
30385;DHT22;17181;51.002;4.096;2022-07-29T20:42:07;20.80;67.20
30385;DHT22;17181;51.002;4.096;2022-07-29T20:44:33;20.70;67.80
30385;DHT22;17181;51.002;4.096;2022-07-29T20:46:59;20.70;68.30
30385;DHT22;17181;51.002;4.096;2022-07-29T20:49:27;20.60;68.50
30385;DHT22;17181;51.002;4.096;2022-07-29T20:51:53;20.60;69.20
30385;DHT22;17181;51.002;4.096;2022-07-29T20:54:18;20.50;69.30
30385;DHT22;17181;51.002;4.096;2022-07-29T20:56:44;20.50;70.00
30385;DHT22;17181;51.002;4.096;2022-07-29T20:59:10;20.40;70.10
30385;DHT22;17181;51.002;4.096;2022-07-29T21:01:36;20.40;70.10
30385;DHT22;17181;51.002;4.096;2022-07-29T21:04:04;20.30;70.80
30385;DHT22;17181;51.002;4.096;2022-07-29T21:06:30;20.30;70.80
30385;DHT22;17181;51.002;4.096;2022-07-29T21:08:56;20.20;71.20
30385;DHT22;17181;51.002;4.096;2022-07-29T21:11:24;20.10;71.80
30385;DHT22;17181;51.002;4.096;2022-07-29T21:13:50;20.00;71.90
30385;DHT22;17181;51.002;4.096;2022-07-29T21:16:16;20.00;72.40
30385;DHT22;17181;51.002;4.096;2022-07-29T21:18:45;19.90;72.40
30385;DHT22;17181;51.002;4.096;2022-07-29T21:21:12;19.90;72.60
30385;DHT22;17181;51.002;4.096;2022-07-29T21:23:39;19.80;72.90
30385;DHT22;17181;51.002;4.096;2022-07-29T21:26:05;19.80;73.40
30385;DHT22;17181;51.002;4.096;2022-07-29T21:28:31;19.70;73.50
30385;DHT22;17181;51.002;4.096;2022-07-29T21:31:06;19.70;73.80
30385;DHT22;17181;51.002;4.096;2022-07-29T21:33:33;19.60;74.20
30385;DHT22;17181;51.002;4.096;2022-07-29T21:36:00;19.60;74.20
30385;DHT22;17181;51.002;4.096;2022-07-29T21:38:27;19.50;74.70
30385;DHT22;17181;51.002;4.096;2022-07-29T21:40:53;19.40;75.60
30385;DHT22;17181;51.002;4.096;2022-07-29T21:43:20;19.40;75.90
30385;DHT22;17181;51.002;4.096;2022-07-29T21:45:46;19.40;76.30
30385;DHT22;17181;51.002;4.096;2022-07-29T21:48:18;19.30;76.70
30385;DHT22;17181;51.002;4.096;2022-07-29T21:50:45;19.30;76.90
30385;DHT22;17181;51.002;4.096;2022-07-29T21:53:12;19.30;77.20
30385;DHT22;17181;51.002;4.096;2022-07-29T21:55:38;19.20;77.10
30385;DHT22;17181;51.002;4.096;2022-07-29T21:58:04;19.10;77.20
30385;DHT22;17181;51.002;4.096;2022-07-29T22:00:31;19.10;78.00
30385;DHT22;17181;51.002;4.096;2022-07-29T22:03:02;19.10;78.40
30385;DHT22;17181;51.002;4.096;2022-07-29T22:05:29;19.00;78.50
30385;DHT22;17181;51.002;4.096;2022-07-29T22:07:55;19.00;78.50
30385;DHT22;17181;51.002;4.096;2022-07-29T22:10:21;18.90;78.90
30385;DHT22;17181;51.002;4.096;2022-07-29T22:12:55;18.90;79.20
30385;DHT22;17181;51.002;4.096;2022-07-29T22:15:22;18.90;79.50
30385;DHT22;17181;51.002;4.096;2022-07-29T22:17:48;18.90;79.40
30385;DHT22;17181;51.002;4.096;2022-07-29T22:20:13;18.80;79.40
30385;DHT22;17181;51.002;4.096;2022-07-29T22:22:39;18.80;79.50
30385;DHT22;17181;51.002;4.096;2022-07-29T22:25:06;18.70;79.70
30385;DHT22;17181;51.002;4.096;2022-07-29T22:27:32;18.80;79.90
30385;DHT22;17181;51.002;4.096;2022-07-29T22:29:58;18.70;79.90
30385;DHT22;17181;51.002;4.096;2022-07-29T22:32:24;18.70;80.10
30385;DHT22;17181;51.002;4.096;2022-07-29T22:34:50;18.70;80.00
30385;DHT22;17181;51.002;4.096;2022-07-29T22:37:16;18.60;80.20
30385;DHT22;17181;51.002;4.096;2022-07-29T22:39:41;18.60;80.30
30385;DHT22;17181;51.002;4.096;2022-07-29T22:42:07;18.50;80.40
30385;DHT22;17181;51.002;4.096;2022-07-29T22:44:33;18.40;80.60
30385;DHT22;17181;51.002;4.096;2022-07-29T22:46:59;18.40;80.60
30385;DHT22;17181;51.002;4.096;2022-07-29T22:49:25;18.30;80.70
30385;DHT22;17181;51.002;4.096;2022-07-29T22:51:51;18.30;81.00
30385;DHT22;17181;51.002;4.096;2022-07-29T22:54:17;18.30;81.20
30385;DHT22;17181;51.002;4.096;2022-07-29T22:56:43;18.10;81.20
30385;DHT22;17181;51.002;4.096;2022-07-29T22:59:09;18.10;81.40
30385;DHT22;17181;51.002;4.096;2022-07-29T23:01:35;18.10;81.40
30385;DHT22;17181;51.002;4.096;2022-07-29T23:04:00;18.10;81.60
30385;DHT22;17181;51.002;4.096;2022-07-29T23:06:26;18.00;81.70
30385;DHT22;17181;51.002;4.096;2022-07-29T23:08:52;18.00;81.80
30385;DHT22;17181;51.002;4.096;2022-07-29T23:11:18;17.90;81.90
30385;DHT22;17181;51.002;4.096;2022-07-29T23:13:44;17.90;82.10
30385;DHT22;17181;51.002;4.096;2022-07-29T23:16:09;17.80;82.30
30385;DHT22;17181;51.002;4.096;2022-07-29T23:18:38;17.80;82.50
30385;DHT22;17181;51.002;4.096;2022-07-29T23:21:04;17.80;82.60
30385;DHT22;17181;51.002;4.096;2022-07-29T23:23:30;17.70;82.90
30385;DHT22;17181;51.002;4.096;2022-07-29T23:25:55;17.70;83.10
30385;DHT22;17181;51.002;4.096;2022-07-29T23:28:21;17.70;83.30
30385;DHT22;17181;51.002;4.096;2022-07-29T23:30:47;17.60;83.40
30385;DHT22;17181;51.002;4.096;2022-07-29T23:33:13;17.60;83.50
30385;DHT22;17181;51.002;4.096;2022-07-29T23:35:39;17.60;83.70
30385;DHT22;17181;51.002;4.096;2022-07-29T23:38:05;17.60;84.10
30385;DHT22;17181;51.002;4.096;2022-07-29T23:40:31;17.60;84.40
30385;DHT22;17181;51.002;4.096;2022-07-29T23:42:57;17.60;84.50
30385;DHT22;17181;51.002;4.096;2022-07-29T23:45:22;17.60;84.60
30385;DHT22;17181;51.002;4.096;2022-07-29T23:47:48;17.50;84.60
30385;DHT22;17181;51.002;4.096;2022-07-29T23:50:14;17.50;84.60
30385;DHT22;17181;51.002;4.096;2022-07-29T23:52:42;17.50;84.50
30385;DHT22;17181;51.002;4.096;2022-07-29T23:55:09;17.40;84.50
30385;DHT22;17181;51.002;4.096;2022-07-29T23:57:36;17.40;84.70
